createdAt,value
2018-03-21T00:00:26.564Z,77.90
2018-03-21T00:02:54.028Z,77.50
2018-03-21T00:05:21.491Z,77.60
2018-03-21T00:07:48.950Z,77.30
2018-03-21T00:10:16.397Z,77.80
2018-03-21T00:12:43.865Z,78.00
2018-03-21T00:15:12.093Z,78.10
2018-03-21T00:17:39.550Z,78.00
2018-03-21T00:20:07.006Z,77.90
2018-03-21T00:22:34.459Z,78.00
2018-03-21T00:25:01.955Z,78.20
2018-03-21T00:27:30.221Z,78.00
2018-03-21T00:32:31.767Z,78.10
2018-03-21T00:34:59.250Z,78.70
2018-03-21T00:37:26.795Z,78.60
2018-03-21T00:39:54.272Z,78.80
2018-03-21T00:42:23.242Z,78.80
2018-03-21T00:44:50.711Z,78.80
2018-03-21T00:47:18.160Z,79.20
2018-03-21T00:49:45.624Z,79.20
2018-03-21T00:52:13.182Z,79.70
2018-03-21T00:54:40.643Z,79.80
2018-03-21T00:57:08.197Z,79.90
2018-03-21T00:59:35.752Z,79.70
2018-03-21T01:02:03.206Z,79.90
2018-03-21T01:04:30.676Z,80.20
2018-03-21T01:06:58.133Z,80.20
2018-03-21T01:09:25.585Z,79.70
2018-03-21T01:11:53.045Z,79.90
2018-03-21T01:14:20.593Z,80.10
2018-03-21T01:16:48.053Z,80.20
2018-03-21T01:19:15.506Z,80.40
2018-03-21T01:21:42.964Z,80.50
2018-03-21T01:24:10.432Z,80.90
2018-03-21T01:26:37.993Z,81.00
2018-03-21T01:29:05.534Z,81.30
2018-03-21T01:31:33.058Z,81.10
2018-03-21T01:34:00.521Z,81.30
2018-03-21T01:36:27.977Z,81.40
2018-03-21T01:38:55.446Z,81.30
2018-03-21T01:41:22.913Z,81.40
2018-03-21T01:43:50.391Z,81.70
2018-03-21T01:46:17.855Z,81.60
2018-03-21T01:48:45.322Z,81.60
2018-03-21T01:51:13.553Z,82.10
2018-03-21T01:53:41.005Z,82.00
2018-03-21T01:56:08.470Z,81.90
2018-03-21T01:58:36.093Z,82.00
2018-03-21T02:01:03.600Z,82.70
2018-03-21T02:03:31.056Z,82.80
2018-03-21T02:05:58.530Z,82.70
2018-03-21T02:08:25.998Z,82.50
2018-03-21T02:10:54.223Z,82.50
2018-03-21T02:13:21.681Z,82.50
2018-03-21T02:15:49.148Z,82.70
2018-03-21T02:18:16.621Z,82.90
2018-03-21T02:20:44.176Z,82.80
2018-03-21T02:23:11.625Z,82.90
2018-03-21T02:25:39.203Z,82.80
2018-03-21T02:28:06.664Z,83.50
2018-03-21T02:30:34.225Z,83.90
2018-03-21T02:33:02.459Z,84.40
2018-03-21T02:35:29.950Z,84.30
2018-03-21T02:37:57.415Z,84.20
2018-03-21T02:40:24.889Z,84.50
2018-03-21T02:42:52.506Z,84.30
2018-03-21T02:45:19.988Z,85.00
2018-03-21T02:47:48.227Z,84.80
2018-03-21T02:50:15.753Z,84.00
2018-03-21T02:52:43.238Z,83.80
2018-03-21T02:55:10.790Z,83.60
2018-03-21T02:57:38.268Z,83.30
2018-03-21T03:00:05.743Z,83.40
2018-03-21T03:02:33.200Z,83.20
2018-03-21T03:05:00.676Z,83.40
2018-03-21T03:07:28.925Z,83.00
2018-03-21T03:09:56.538Z,83.00
2018-03-21T03:12:24.013Z,82.80
2018-03-21T03:14:51.604Z,83.10
2018-03-21T03:17:19.077Z,83.20
2018-03-21T03:19:47.305Z,83.10
2018-03-21T03:22:14.802Z,83.80
2018-03-21T03:24:43.037Z,83.60
2018-03-21T03:27:10.513Z,82.70
2018-03-21T03:29:37.980Z,82.80
2018-03-21T03:32:05.460Z,82.50
2018-03-21T03:34:33.714Z,82.80
2018-03-21T03:37:01.178Z,82.80
2018-03-21T03:39:28.678Z,82.70
2018-03-21T03:41:56.138Z,83.60
2018-03-21T03:44:23.646Z,82.60
2018-03-21T03:46:51.117Z,82.50
2018-03-21T03:49:19.378Z,82.60
2018-03-21T03:51:46.859Z,82.60
2018-03-21T03:54:15.110Z,82.60
2018-03-21T03:56:42.576Z,82.50
2018-03-21T03:59:10.829Z,82.80
2018-03-21T04:01:38.314Z,82.90
2018-03-21T04:04:06.549Z,82.80
2018-03-21T04:06:34.017Z,82.70
2018-03-21T04:09:01.589Z,82.90
2018-03-21T04:11:30.552Z,82.90
2018-03-21T04:13:58.026Z,82.90
2018-03-21T04:16:25.489Z,83.00
2018-03-21T04:18:52.944Z,83.10
2018-03-21T04:21:20.514Z,82.90
2018-03-21T04:23:48.070Z,82.90
2018-03-21T04:26:17.066Z,82.90
2018-03-21T04:28:44.633Z,82.90
2018-03-21T04:31:12.907Z,83.20
2018-03-21T04:33:41.150Z,84.10
2018-03-21T04:36:08.637Z,83.20
2018-03-21T04:38:36.292Z,83.30
2018-03-21T04:41:03.749Z,83.50
2018-03-21T04:43:31.305Z,84.60
2018-03-21T04:45:58.760Z,84.40
2018-03-21T04:48:26.226Z,83.50
2018-03-21T04:50:54.477Z,83.50
2018-03-21T04:53:22.046Z,83.60
2018-03-21T04:55:49.617Z,83.50
2018-03-21T04:58:17.077Z,83.70
2018-03-21T05:00:44.544Z,83.80
2018-03-21T05:03:12.788Z,83.80
2018-03-21T05:05:40.257Z,83.70
2018-03-21T05:08:07.724Z,83.60
2018-03-21T05:10:36.083Z,83.60
2018-03-21T05:13:03.648Z,83.50
2018-03-21T05:15:31.173Z,83.70
2018-03-21T05:17:58.653Z,83.60
2018-03-21T05:20:26.121Z,83.60
2018-03-21T05:22:54.413Z,83.70
2018-03-21T05:25:22.670Z,83.80
2018-03-21T05:27:50.141Z,83.80
2018-03-21T05:30:17.634Z,83.70
2018-03-21T05:32:45.126Z,83.50
2018-03-21T05:35:12.600Z,83.50
2018-03-21T05:37:40.153Z,83.60
2018-03-21T05:40:07.761Z,83.70
2018-03-21T05:42:35.286Z,83.50
2018-03-21T05:45:02.748Z,83.30
2018-03-21T05:47:31.006Z,83.20
2018-03-21T05:49:58.473Z,83.10
2018-03-21T05:52:26.709Z,83.50
2018-03-21T05:54:54.183Z,83.50
2018-03-21T05:57:21.646Z,83.40
2018-03-21T05:59:49.110Z,83.80
2018-03-21T06:02:16.603Z,83.80
2018-03-21T06:04:44.122Z,83.80
2018-03-21T06:07:12.366Z,83.70
2018-03-21T06:09:39.854Z,83.70
2018-03-21T06:12:07.319Z,83.60
2018-03-21T06:14:34.780Z,83.70
2018-03-21T06:17:03.023Z,84.50
2018-03-21T06:19:30.596Z,84.40
2018-03-21T06:21:58.876Z,84.80
2018-03-21T06:24:26.441Z,84.80
2018-03-21T06:26:53.897Z,84.80
2018-03-21T06:29:21.494Z,85.20
2018-03-21T06:31:49.028Z,85.00
2018-03-21T06:34:17.283Z,85.00
2018-03-21T06:36:44.899Z,84.90
2018-03-21T06:39:12.374Z,84.80
2018-03-21T06:41:39.853Z,84.90
2018-03-21T06:44:07.309Z,84.60
2018-03-21T06:46:34.769Z,84.60
2018-03-21T06:49:03.013Z,84.50
2018-03-21T06:51:30.473Z,84.50
2018-03-21T06:53:57.942Z,84.30
2018-03-21T06:56:25.416Z,84.30
2018-03-21T06:58:52.864Z,84.10
2018-03-21T07:01:20.329Z,83.90
2018-03-21T07:03:47.776Z,83.50
2018-03-21T07:06:16.011Z,82.50
2018-03-21T07:08:43.474Z,82.50
2018-03-21T07:11:10.936Z,82.30
2018-03-21T07:13:50.516Z,82.20
2018-03-21T07:19:15.633Z,82.20
2018-03-21T07:21:43.147Z,82.00
2018-03-21T07:24:10.652Z,81.80
2018-03-21T07:26:38.108Z,81.50
2018-03-21T07:29:05.569Z,81.40
2018-03-21T07:31:33.104Z,80.90
2018-03-21T07:34:01.297Z,80.80
2018-03-21T07:36:28.771Z,80.70
2018-03-21T07:38:56.997Z,80.70
2018-03-21T07:41:24.453Z,80.70
2018-03-21T07:43:51.907Z,80.30
2018-03-21T07:46:19.360Z,79.90
2018-03-21T07:48:46.825Z,80.10
2018-03-21T07:51:14.315Z,79.50
2018-03-21T07:53:41.779Z,79.90
2018-03-21T07:56:09.333Z,78.70
2018-03-21T07:58:37.569Z,79.10
2018-03-21T08:01:05.034Z,78.30
2018-03-21T08:03:32.490Z,78.50
2018-03-21T08:06:00.342Z,78.40
2018-03-21T08:08:27.796Z,77.80
2018-03-21T08:10:55.282Z,76.50
2018-03-21T08:13:22.740Z,76.40
2018-03-21T08:15:50.316Z,76.10
2018-03-21T08:18:17.875Z,75.10
2018-03-21T08:20:45.433Z,73.30
2018-03-21T08:23:12.899Z,73.00
2018-03-21T08:25:41.219Z,71.90
2018-03-21T08:28:08.730Z,71.80
2018-03-21T08:30:36.218Z,68.50
2018-03-21T08:33:03.690Z,68.50
2018-03-21T08:35:31.145Z,65.80
2018-03-21T08:37:58.602Z,65.40
2018-03-21T08:40:26.068Z,63.00
2018-03-21T08:42:53.567Z,62.60
2018-03-21T08:45:21.025Z,61.10
2018-03-21T08:47:48.497Z,60.70
2018-03-21T08:50:16.722Z,58.30
2018-03-21T08:52:44.178Z,58.30
2018-03-21T08:55:11.633Z,57.60
2018-03-21T08:57:39.120Z,58.00
2018-03-21T09:00:06.674Z,56.40
2018-03-21T09:02:34.142Z,55.70
2018-03-21T09:05:01.834Z,56.70
2018-03-21T09:07:30.093Z,56.70
2018-03-21T09:09:57.632Z,56.50
2018-03-21T09:12:25.194Z,57.50
2018-03-21T09:14:52.662Z,56.10
2018-03-21T09:17:20.933Z,54.50
2018-03-21T09:19:49.193Z,49.60
2018-03-21T09:22:16.677Z,49.00
2018-03-21T09:24:44.983Z,50.40
2018-03-21T09:27:12.496Z,50.30
2018-03-21T09:29:39.957Z,50.50
2018-03-21T09:32:07.413Z,50.80
2018-03-21T09:34:34.884Z,49.40
2018-03-21T09:37:03.117Z,47.20
2018-03-21T09:39:30.586Z,46.90
2018-03-21T09:41:58.182Z,42.40
2018-03-21T09:44:25.640Z,44.70
2018-03-21T09:46:53.849Z,46.40
2018-03-21T09:49:21.336Z,46.30
2018-03-21T09:51:48.798Z,44.80
2018-03-21T09:54:16.371Z,43.80
2018-03-21T09:56:44.625Z,45.70
2018-03-21T09:59:12.085Z,45.60
2018-03-21T10:01:39.540Z,47.00
2018-03-21T10:04:07.007Z,48.20
2018-03-21T10:06:34.532Z,47.00
2018-03-21T10:09:02.009Z,47.30
2018-03-21T10:11:29.481Z,46.80
2018-03-21T10:13:57.029Z,47.40
2018-03-21T10:16:24.498Z,45.80
2018-03-21T10:18:52.761Z,46.70
2018-03-21T10:21:20.322Z,46.60
2018-03-21T10:23:47.875Z,48.00
2018-03-21T10:26:15.342Z,46.00
2018-03-21T10:28:42.805Z,44.10
2018-03-21T10:31:11.036Z,45.80
2018-03-21T10:33:38.531Z,45.70
2018-03-21T10:36:05.991Z,44.20
2018-03-21T10:38:34.234Z,43.10
2018-03-21T10:41:01.702Z,43.00
2018-03-21T10:43:29.172Z,43.30
2018-03-21T10:45:56.674Z,43.10
2018-03-21T10:48:24.877Z,42.30
2018-03-21T10:50:52.347Z,42.20
2018-03-21T10:53:19.817Z,43.50
2018-03-21T10:55:48.088Z,41.60
2018-03-21T10:58:15.554Z,41.60
2018-03-21T11:00:43.064Z,40.50
2018-03-21T11:03:12.401Z,41.60
2018-03-21T11:05:41.377Z,42.60
2018-03-21T11:08:09.065Z,42.60
2018-03-21T11:10:36.517Z,39.80
2018-03-21T11:13:04.072Z,42.30
2018-03-21T11:15:31.638Z,40.80
2018-03-21T11:17:59.116Z,37.60
2018-03-21T11:20:26.599Z,36.70
2018-03-21T11:22:54.086Z,38.50
2018-03-21T11:25:21.562Z,38.10
2018-03-21T11:27:49.117Z,35.90
2018-03-21T11:30:16.681Z,36.90
2018-03-21T11:32:45.008Z,33.70
2018-03-21T11:35:12.481Z,34.10
2018-03-21T11:37:39.970Z,35.10
2018-03-21T11:40:07.530Z,36.40
2018-03-21T11:42:35.060Z,36.30
2018-03-21T11:45:02.606Z,35.60
2018-03-21T11:47:30.821Z,32.90
2018-03-21T11:49:58.294Z,32.80
2018-03-21T11:52:26.536Z,35.90
2018-03-21T11:54:54.016Z,36.00
2018-03-21T11:57:23.064Z,37.10
2018-03-21T11:59:50.552Z,37.10
2018-03-21T12:02:18.021Z,37.90
2018-03-21T12:04:45.581Z,36.80
2018-03-21T12:07:13.090Z,36.40
2018-03-21T12:09:40.553Z,36.60
2018-03-21T12:12:08.040Z,36.90
2018-03-21T12:14:35.507Z,37.70
2018-03-21T12:17:03.054Z,38.80
2018-03-21T12:19:30.522Z,39.40
2018-03-21T12:21:57.980Z,38.80
2018-03-21T12:24:25.436Z,39.30
2018-03-21T12:26:52.920Z,38.40
2018-03-21T12:29:20.475Z,38.60
2018-03-21T12:31:48.029Z,39.70
2018-03-21T12:34:16.262Z,39.10
2018-03-21T12:36:43.725Z,39.00
2018-03-21T12:39:16.138Z,38.60
2018-03-21T12:41:44.364Z,39.70
2018-03-21T12:44:11.833Z,39.60
2018-03-21T12:46:39.393Z,38.90
2018-03-21T12:49:06.912Z,40.30
2018-03-21T12:51:34.414Z,39.60
2018-03-21T12:54:01.979Z,39.70
2018-03-21T12:56:29.459Z,39.70
2018-03-21T12:58:56.931Z,40.20
2018-03-21T13:01:24.420Z,41.20
2018-03-21T13:03:51.874Z,40.70
2018-03-21T13:06:19.344Z,39.70
2018-03-21T13:08:46.812Z,40.10
2018-03-21T13:11:14.269Z,40.60
2018-03-21T13:13:41.728Z,39.40
2018-03-21T13:16:09.388Z,40.90
2018-03-21T13:18:36.852Z,40.60
2018-03-21T13:21:04.325Z,41.00
2018-03-21T13:23:31.788Z,40.60
2018-03-21T13:25:59.255Z,40.00
2018-03-21T13:28:26.755Z,39.10
2018-03-21T13:30:54.217Z,38.80
2018-03-21T13:33:21.683Z,38.70
2018-03-21T13:35:49.239Z,38.50
2018-03-21T13:38:16.700Z,38.50
2018-03-21T13:40:44.942Z,40.00
2018-03-21T13:43:12.429Z,40.00
2018-03-21T13:45:39.894Z,39.60
2018-03-21T13:48:07.364Z,40.10
2018-03-21T13:50:35.653Z,39.10
2018-03-21T13:53:03.118Z,39.00
2018-03-21T13:55:30.644Z,39.30
2018-03-21T13:57:58.213Z,38.50
2018-03-21T14:00:26.442Z,38.20
2018-03-21T14:02:53.921Z,38.20
2018-03-21T14:05:21.386Z,38.40
2018-03-21T14:07:48.849Z,37.70
2018-03-21T14:10:16.400Z,37.30
2018-03-21T14:12:43.863Z,37.30
2018-03-21T14:15:11.327Z,38.20
2018-03-21T14:17:39.553Z,37.70
2018-03-21T14:20:07.004Z,37.10
2018-03-21T14:22:34.506Z,37.40
2018-03-21T14:25:01.964Z,37.70
2018-03-21T14:27:29.426Z,36.90
2018-03-21T14:29:56.928Z,37.50
2018-03-21T14:32:24.437Z,37.70
2018-03-21T14:34:52.748Z,36.60
2018-03-21T14:37:20.222Z,36.50
2018-03-21T14:39:47.677Z,37.30
2018-03-21T14:42:15.189Z,37.90
2018-03-21T14:44:42.656Z,37.60
2018-03-21T14:47:10.889Z,36.60
2018-03-21T14:49:38.368Z,36.50
2018-03-21T14:52:05.820Z,36.20
2018-03-21T14:54:34.171Z,36.50
2018-03-21T14:57:01.625Z,36.50
2018-03-21T14:59:29.076Z,36.80
2018-03-21T15:01:56.557Z,37.10
2018-03-21T15:04:24.034Z,37.50
2018-03-21T15:06:51.514Z,37.90
2018-03-21T15:09:19.805Z,38.20
2018-03-21T15:11:47.266Z,38.20
2018-03-21T15:14:14.789Z,37.90
2018-03-21T15:16:43.022Z,38.40
2018-03-21T15:19:10.579Z,38.40
2018-03-21T15:21:38.776Z,38.70
2018-03-21T15:24:06.241Z,38.60
2018-03-21T15:26:33.739Z,38.50
2018-03-21T15:29:01.267Z,39.00
2018-03-21T15:31:28.818Z,38.40
2018-03-21T15:33:56.271Z,38.60
2018-03-21T15:36:23.834Z,38.50
2018-03-21T15:38:51.393Z,38.70
2018-03-21T15:41:18.849Z,39.10
2018-03-21T15:43:47.127Z,39.50
2018-03-21T15:46:14.681Z,39.40
2018-03-21T15:48:42.909Z,40.10
2018-03-21T15:51:10.427Z,40.10
2018-03-21T15:53:38.685Z,40.30
2018-03-21T15:56:06.273Z,40.30
2018-03-21T15:58:34.498Z,41.60
2018-03-21T16:01:01.976Z,40.90
2018-03-21T16:03:29.452Z,40.80
2018-03-21T16:05:57.684Z,42.40
2018-03-21T16:08:25.223Z,41.70
2018-03-21T16:10:52.733Z,42.10
2018-03-21T16:13:20.240Z,42.50
2018-03-21T16:15:47.713Z,42.70
2018-03-21T16:18:15.172Z,43.00
2018-03-21T16:20:42.649Z,43.10
2018-03-21T16:23:10.104Z,43.40
2018-03-21T16:25:37.699Z,43.60
2018-03-21T16:28:05.965Z,44.40
2018-03-21T16:30:34.222Z,44.70
2018-03-21T16:33:01.691Z,44.70
2018-03-21T16:35:29.946Z,45.10
2018-03-21T16:37:58.942Z,45.40
2018-03-21T16:40:26.613Z,45.40
2018-03-21T16:42:54.088Z,45.70
2018-03-21T16:45:21.576Z,46.00
2018-03-21T16:47:49.034Z,46.30
2018-03-21T16:50:16.505Z,46.30
2018-03-21T16:52:43.965Z,46.60
2018-03-21T16:55:11.467Z,46.60
2018-03-21T16:57:39.700Z,47.00
2018-03-21T17:00:07.162Z,47.00
2018-03-21T17:05:09.478Z,47.40
2018-03-21T17:07:36.952Z,47.30
2018-03-21T17:10:05.207Z,48.10
2018-03-21T17:12:32.770Z,48.10
2018-03-21T17:15:01.422Z,48.80
2018-03-21T17:17:28.936Z,48.70
2018-03-21T17:19:56.402Z,49.00
2018-03-21T17:22:23.994Z,49.20
2018-03-21T17:24:51.455Z,49.60
2018-03-21T17:27:18.920Z,49.60
2018-03-21T17:29:46.389Z,49.50
2018-03-21T17:32:13.853Z,50.00
2018-03-21T17:34:41.314Z,50.40
2018-03-21T17:37:09.599Z,50.50
2018-03-21T17:39:37.893Z,50.60
2018-03-21T17:42:05.312Z,50.60
2018-03-21T17:44:32.813Z,51.20
2018-03-21T17:47:00.271Z,50.80
2018-03-21T17:49:27.808Z,50.70
2018-03-21T17:51:56.043Z,50.90
2018-03-21T17:54:23.527Z,50.80
2018-03-21T17:56:51.774Z,50.30
2018-03-21T17:59:19.293Z,50.70
2018-03-21T18:01:46.816Z,51.20
2018-03-21T18:04:15.218Z,51.70
2018-03-21T18:06:43.437Z,52.00
2018-03-21T18:09:11.378Z,52.00
2018-03-21T18:11:38.870Z,52.10
2018-03-21T18:14:06.330Z,52.70
2018-03-21T18:16:33.909Z,52.90
2018-03-21T18:19:02.141Z,53.50
2018-03-21T18:21:29.677Z,53.40
2018-03-21T18:23:57.140Z,53.70
2018-03-21T18:26:24.657Z,53.60
2018-03-21T18:28:52.117Z,53.90
2018-03-21T18:31:20.430Z,53.60
2018-03-21T18:33:47.888Z,53.50
2018-03-21T18:36:15.358Z,54.10
2018-03-21T18:38:42.832Z,54.50
2018-03-21T18:41:10.391Z,54.30
2018-03-21T18:43:37.873Z,54.70
2018-03-21T18:46:05.344Z,55.10
2018-03-21T18:48:33.681Z,55.30
2018-03-21T18:51:02.014Z,55.30
2018-03-21T18:53:29.437Z,55.20
2018-03-21T18:55:56.903Z,55.90
2018-03-21T18:58:25.159Z,56.60
2018-03-21T19:00:52.692Z,56.50
2018-03-21T19:03:20.260Z,56.50
2018-03-21T19:05:47.736Z,56.50
2018-03-21T19:08:15.219Z,56.80
2018-03-21T19:10:43.511Z,57.10
2018-03-21T19:13:11.012Z,57.10
2018-03-21T19:15:38.488Z,57.80
2018-03-21T19:18:06.100Z,57.80
2018-03-21T19:20:33.575Z,58.00
2018-03-21T19:23:01.067Z,58.00
2018-03-21T19:25:29.306Z,58.40
2018-03-21T19:27:56.788Z,58.40
2018-03-21T19:30:24.301Z,58.40
2018-03-21T19:32:51.828Z,58.50
2018-03-21T19:35:20.065Z,58.70
2018-03-21T19:37:47.658Z,59.20
2018-03-21T19:40:15.907Z,58.80
2018-03-21T19:42:43.388Z,58.80
2018-03-21T19:45:10.853Z,59.20
2018-03-21T19:47:39.092Z,59.40
2018-03-21T19:50:06.635Z,59.30
2018-03-21T19:52:34.103Z,59.10
2018-03-21T19:55:01.607Z,59.30
2018-03-21T19:57:29.831Z,59.50
2018-03-21T19:59:57.401Z,59.50
2018-03-21T20:02:24.877Z,59.30
2018-03-21T20:04:52.366Z,59.40
2018-03-21T20:07:19.826Z,59.90
2018-03-21T20:09:47.302Z,60.40
2018-03-21T20:12:14.814Z,60.20
2018-03-21T20:14:43.078Z,60.00
2018-03-21T20:17:10.628Z,59.90
2018-03-21T20:19:38.970Z,60.10
2018-03-21T20:22:06.427Z,60.10
2018-03-21T20:24:33.900Z,60.00
2018-03-21T20:27:01.386Z,60.20
2018-03-21T20:29:28.854Z,60.30
2018-03-21T20:31:57.086Z,60.90
2018-03-21T20:34:24.568Z,60.80
2018-03-21T20:36:52.049Z,61.20
2018-03-21T20:39:20.267Z,61.30
2018-03-21T20:41:47.724Z,61.20
2018-03-21T20:44:15.182Z,61.50
2018-03-21T20:46:42.660Z,61.30
2018-03-21T20:49:10.225Z,61.30
2018-03-21T20:51:37.684Z,61.70
2018-03-21T20:54:05.157Z,61.70
2018-03-21T20:56:33.373Z,61.90
2018-03-21T20:59:00.870Z,61.80
2018-03-21T21:01:29.157Z,62.30
2018-03-21T21:03:57.420Z,62.50
2018-03-21T21:06:25.655Z,62.60
2018-03-21T21:08:53.118Z,62.60
2018-03-21T21:11:20.576Z,63.10
2018-03-21T21:13:48.033Z,63.30
2018-03-21T21:16:15.534Z,64.20
2018-03-21T21:18:43.928Z,64.60
2018-03-21T21:21:12.168Z,64.50
2018-03-21T21:23:39.693Z,64.50
2018-03-21T21:26:07.157Z,64.40
2018-03-21T21:28:34.618Z,64.60
2018-03-21T21:31:02.162Z,64.70
2018-03-21T21:33:29.631Z,64.90
2018-03-21T21:35:57.124Z,65.00
2018-03-21T21:38:24.581Z,64.50
2018-03-21T21:40:52.153Z,64.50
2018-03-21T21:43:19.714Z,64.10
2018-03-21T21:45:47.965Z,63.90
2018-03-21T21:48:15.525Z,63.80
2018-03-21T21:50:44.520Z,64.20
2018-03-21T21:53:11.986Z,64.20
2018-03-21T21:55:42.153Z,64.40
2018-03-21T21:58:09.613Z,64.70
2018-03-21T22:00:37.090Z,64.60
2018-03-21T22:03:04.572Z,65.00
2018-03-21T22:05:32.086Z,65.20
2018-03-21T22:07:59.612Z,64.90
2018-03-21T22:10:27.927Z,65.00
2018-03-21T22:12:55.425Z,65.00
2018-03-21T22:15:23.910Z,66.30
2018-03-21T22:17:52.144Z,66.20
2018-03-21T22:20:19.638Z,66.00
2018-03-21T22:22:47.903Z,65.50
2018-03-21T22:25:15.364Z,65.50
2018-03-21T22:27:43.670Z,65.80
2018-03-21T22:30:11.157Z,65.70
2018-03-21T22:32:38.621Z,65.50
2018-03-21T22:35:06.076Z,65.00
2018-03-21T22:37:33.566Z,65.10
2018-03-21T22:40:01.124Z,64.90
2018-03-21T22:42:29.357Z,64.70
2018-03-21T22:44:56.820Z,64.80
2018-03-21T22:47:24.280Z,65.00
2018-03-21T22:49:51.741Z,65.20
2018-03-21T22:52:19.212Z,65.90
2018-03-21T22:54:46.669Z,65.00
2018-03-21T22:57:14.348Z,64.80
2018-03-21T22:59:41.823Z,64.50
2018-03-21T23:02:10.057Z,64.80
2018-03-21T23:04:37.513Z,64.60
2018-03-21T23:07:05.001Z,64.80
2018-03-21T23:09:32.457Z,65.00
2018-03-21T23:12:00.721Z,65.40
2018-03-21T23:14:28.277Z,65.30
2018-03-21T23:16:55.749Z,65.50
2018-03-21T23:19:23.320Z,65.40
2018-03-21T23:21:51.709Z,65.30
2018-03-21T23:24:19.193Z,65.40
2018-03-21T23:26:46.807Z,65.80
2018-03-21T23:29:15.034Z,67.40
2018-03-21T23:31:42.549Z,66.50
2018-03-21T23:34:10.788Z,67.00
2018-03-21T23:36:38.261Z,67.00
2018-03-21T23:39:05.761Z,67.00
2018-03-21T23:41:33.334Z,66.90
2018-03-21T23:44:00.837Z,67.70
2018-03-21T23:46:28.393Z,67.90
2018-03-21T23:48:55.957Z,68.00
2018-03-21T23:51:23.436Z,68.00
2018-03-21T23:53:51.715Z,69.00
2018-03-21T23:56:19.955Z,69.40
2018-03-21T23:58:47.526Z,69.40
